Time;durP1;ratioP1;P1;durP2;ratioP2;P2;SDS_P1;SDS_P2;PMS_P1;PMS_P2;Temp;Humidity;BMP_temperature;BMP_pressure;BME280_temperature;BME280_humidity;BME280_pressure;Samples;Min_cycle;Max_cycle;Signal;HPM_P1;HPM_P2
2021/12/28 00:01:33;;;;;;;5.60;3.50;;;;;;;8.62;100.00;98230.81;8262728;28;20406;-82
2021/12/28 00:05:34;;;;;;;15.70;3.67;;;;;;;8.58;100.00;98217.94;8286180;28;20096;-82
2021/12/28 00:09:34;;;;;;;8.82;4.05;;;;;;;8.42;100.00;98208.88;8292484;28;20026;-82
2021/12/28 00:13:36;;;;;;;10.48;4.15;;;;;;;8.27;100.00;98208.81;8273618;28;20044;-82
2021/12/28 00:21:56;;;;;;;13.20;4.40;;;;;;;8.09;100.00;98204.69;8265668;28;20133;-83
2021/12/28 00:25:56;;;;;;;8.65;4.43;;;;;;;8.14;100.00;98218.44;8267161;28;20149;-83
2021/12/28 00:29:57;;;;;;;14.80;3.70;;;;;;;8.24;100.00;98221.19;8272614;28;20031;-82
2021/12/28 00:33:58;;;;;;;9.70;4.05;;;;;;;8.34;100.00;98217.63;8267939;28;20053;-83
2021/12/28 00:38:01;;;;;;;12.35;4.38;;;;;;;8.39;100.00;98209.44;8279327;28;20034;-82
2021/12/28 00:42:01;;;;;;;10.82;4.47;;;;;;;8.49;100.00;98205.84;8275895;28;20049;-83
2021/12/28 00:46:04;;;;;;;21.75;5.00;;;;;;;8.54;100.00;98203.13;8293638;28;20038;-82
2021/12/28 00:50:05;;;;;;;;;;;;;;;8.55;100.00;98189.09;8279023;28;20114;-82
2021/12/28 00:54:06;;;;;;;17.30;4.10;;;;;;;8.63;100.00;98187.72;8295996;28;19996;-80
2021/12/28 00:58:06;;;;;;;13.43;4.20;;;;;;;8.65;100.00;98191.81;8274859;28;20050;-81
2021/12/28 01:02:07;;;;;;;13.60;3.05;;;;;;;8.77;100.00;98185.22;8283532;28;20286;-82
2021/12/28 01:06:07;;;;;;;18.50;4.03;;;;;;;8.83;100.00;98184.09;8260679;28;20038;-82
2021/12/28 01:10:12;;;;;;;14.50;3.40;;;;;;;8.89;100.00;98185.72;8269970;28;20128;-81
2021/12/28 01:14:13;;;;;;;18.55;4.60;;;;;;;8.89;100.00;98178.34;8263227;28;20042;-82
2021/12/28 01:18:13;;;;;;;22.38;4.28;;;;;;;8.94;100.00;98172.00;8278850;28;20065;-82
2021/12/28 01:22:14;;;;;;;18.75;4.07;;;;;;;8.97;100.00;98165.94;8259579;28;20037;-82
2021/12/28 01:26:14;;;;;;;12.52;2.97;;;;;;;9.02;100.00;98163.19;8263432;28;20035;-82
2021/12/28 01:30:19;;;;;;;11.90;2.70;;;;;;;9.04;100.00;98165.63;8268192;28;20034;-81
2021/12/28 01:34:20;;;;;;;13.52;3.33;;;;;;;9.09;100.00;98158.19;8263729;28;20051;-81
2021/12/28 01:38:21;;;;;;;15.30;2.70;;;;;;;9.13;100.00;98144.72;8267330;28;20507;-82
2021/12/28 01:42:21;;;;;;;19.38;3.15;;;;;;;9.11;100.00;98136.75;8249521;28;20114;-82
2021/12/28 01:46:22;;;;;;;16.92;3.20;;;;;;;9.17;100.00;98131.25;8264701;28;20070;-81
2021/12/28 01:50:22;;;;;;;17.60;3.38;;;;;;;9.22;100.00;98137.56;8242245;28;20034;-81
2021/12/28 01:54:23;;;;;;;20.30;3.45;;;;;;;9.18;100.00;98138.38;8244195;28;20543;-81
2021/12/28 01:58:24;;;;;;;17.05;2.78;;;;;;;9.15;100.00;98122.47;8258582;28;20062;-82
2021/12/28 02:02:25;;;;;;;12.88;3.15;;;;;;;9.15;100.00;98127.97;8264864;28;20031;-82
2021/12/28 02:06:25;;;;;;;13.13;2.95;;;;;;;9.13;100.00;98126.31;8253872;28;20066;-81
2021/12/28 02:10:26;;;;;;;12.32;3.50;;;;;;;9.15;100.00;98116.97;8257651;28;20054;-82
2021/12/28 02:14:26;;;;;;;11.88;2.38;;;;;;;9.01;100.00;98128.56;8258082;28;20041;-81
2021/12/28 02:18:29;;;;;;;13.32;3.10;;;;;;;8.92;100.00;98118.44;8267409;28;20630;-82
2021/12/28 02:22:29;;;;;;;16.42;2.90;;;;;;;8.86;100.00;98117.63;8258241;28;20043;-81
2021/12/28 02:26:31;;;;;;;12.15;3.08;;;;;;;8.86;100.00;98104.72;8248941;28;20483;-82
2021/12/28 02:30:31;;;;;;;14.32;3.92;;;;;;;8.79;100.00;98098.69;8271228;28;20037;-82
2021/12/28 02:34:32;;;;;;;15.20;3.00;;;;;;;8.75;100.00;98099.56;8268602;28;20045;-82
2021/12/28 02:38:33;;;;;;;10.93;3.05;;;;;;;8.67;100.00;98089.97;8276993;28;20473;-81
2021/12/28 02:42:34;;;;;;;13.05;2.22;;;;;;;8.70;100.00;98088.59;8252852;28;20084;-82
2021/12/28 02:46:35;;;;;;;15.57;2.67;;;;;;;8.67;100.00;98084.47;8265117;28;20034;-82
2021/12/28 02:50:43;;;;;;;9.50;2.40;;;;;;;8.78;100.00;98074.28;8264531;28;20030;-82
2021/12/28 02:54:44;;;;;;;10.85;2.95;;;;;;;8.81;100.00;98070.97;8286443;28;20034;-81
2021/12/28 02:58:52;;;;;;;14.00;3.17;;;;;;;8.82;100.00;98067.09;8279841;28;20030;-80
2021/12/28 03:02:52;;;;;;;15.93;3.45;;;;;;;8.78;100.00;98055.06;8264080;28;20120;-81
2021/12/28 03:06:54;;;;;;;10.48;3.03;;;;;;;8.72;100.00;98050.69;8246866;28;20035;-81
2021/12/28 03:10:56;;;;;;;10.38;3.53;;;;;;;8.67;100.00;98046.03;8248004;28;20061;-82
2021/12/28 03:14:56;;;;;;;9.68;2.70;;;;;;;8.70;100.00;98047.38;8284107;28;20659;-81
2021/12/28 03:18:57;;;;;;;10.38;2.28;;;;;;;8.81;100.00;98047.06;8280909;28;20041;-81
2021/12/28 03:22:58;;;;;;;11.15;2.50;;;;;;;8.84;100.00;98037.44;8262549;28;20057;-81
2021/12/28 03:26:58;;;;;;;15.33;2.27;;;;;;;8.93;100.00;98029.44;8292864;28;20038;-81
2021/12/28 03:31:00;;;;;;;6.13;1.92;;;;;;;8.99;100.00;98026.38;8279608;28;20725;-82
2021/12/28 03:35:03;;;;;;;14.80;4.05;;;;;;;9.06;100.00;98015.06;8268531;28;20088;-81
2021/12/28 03:39:04;;;;;;;11.18;2.28;;;;;;;9.11;100.00;98007.63;8274085;28;20128;-81
2021/12/28 03:43:05;;;;;;;20.38;2.63;;;;;;;9.08;100.00;97991.72;8268413;28;20043;-81
2021/12/28 03:47:06;;;;;;;10.77;2.53;;;;;;;9.11;100.00;97984.81;8265056;28;20038;-81
2021/12/28 03:51:08;;;;;;;8.35;1.85;;;;;;;9.08;100.00;97988.13;8256083;28;20037;-81
2021/12/28 03:55:09;;;;;;;14.52;2.15;;;;;;;9.06;100.00;97976.59;8263515;28;20042;-80
2021/12/28 03:59:09;;;;;;;8.32;2.00;;;;;;;8.99;100.00;97976.13;8270820;28;20034;-80
2021/12/28 04:03:12;;;;;;;17.17;2.45;;;;;;;8.97;100.00;97964.56;8257412;28;20047;-81
2021/12/28 04:07:18;;;;;;;13.20;2.42;;;;;;;8.94;99.63;97957.72;8269474;28;20392;-81
2021/12/28 04:15:22;;;;;;;7.32;2.05;;;;;;;9.02;98.90;97957.13;8264411;28;20043;-82
2021/12/28 04:19:22;;;;;;;9.77;1.80;;;;;;;9.05;98.05;97964.78;8288350;28;20038;-81
2021/12/28 04:23:23;;;;;;;10.10;1.77;;;;;;;9.13;97.92;97966.94;8278833;28;20042;-82
2021/12/28 04:27:23;;;;;;;11.13;2.22;;;;;;;9.10;96.07;97969.41;8285838;28;20042;-83
2021/12/28 04:31:23;;;;;;;6.63;1.75;;;;;;;9.20;95.59;97961.13;8275303;28;20042;-82
2021/12/28 04:35:24;;;;;;;8.68;2.00;;;;;;;9.25;95.61;97963.00;8268247;28;20030;-82
2021/12/28 04:39:24;;;;;;;6.00;1.52;;;;;;;9.21;96.25;97968.25;8286965;28;20035;-82
2021/12/28 04:43:25;;;;;;;11.88;1.92;;;;;;;9.22;98.35;97969.06;8275613;28;20560;-82
2021/12/28 04:47:26;;;;;;;7.30;1.63;;;;;;;9.15;100.00;97971.31;8243517;28;20522;-82
2021/12/28 04:51:26;;;;;;;6.22;1.50;;;;;;;9.04;100.00;97968.66;8263947;28;20050;-80
2021/12/28 04:55:27;;;;;;;9.85;1.90;;;;;;;8.89;100.00;97974.22;8259796;28;20030;-80
2021/12/28 04:59:27;;;;;;;7.20;1.63;;;;;;;8.83;100.00;97967.13;8264689;28;20106;-82
2021/12/28 05:03:27;;;;;;;8.57;2.10;;;;;;;8.71;100.00;97974.88;8269535;28;20038;-83
2021/12/28 05:07:28;;;;;;;10.60;1.92;;;;;;;8.62;100.00;97980.97;8263586;28;20108;-82
2021/12/28 05:11:31;;;;;;;17.70;2.15;;;;;;;8.54;100.00;97973.31;8253914;28;20121;-81
2021/12/28 05:15:31;;;;;;;12.85;2.60;;;;;;;8.49;100.00;97970.59;8269937;28;20037;-82
2021/12/28 05:19:33;;;;;;;15.20;2.50;;;;;;;8.52;100.00;97972.78;8283392;28;20034;-82
2021/12/28 05:23:34;;;;;;;12.15;1.92;;;;;;;8.42;100.00;97968.16;8272196;28;20041;-80
2021/12/28 05:27:35;;;;;;;15.38;2.30;;;;;;;8.33;100.00;97960.75;8263827;28;20393;-81
2021/12/28 05:31:35;;;;;;;11.93;2.30;;;;;;;8.31;100.00;97963.78;8270023;28;20041;-80
2021/12/28 05:35:36;;;;;;;13.68;2.45;;;;;;;8.31;100.00;97954.72;8247797;28;20085;-80
2021/12/28 05:39:36;;;;;;;9.95;1.70;;;;;;;8.25;100.00;97951.19;8245102;28;20034;-81
2021/12/28 05:43:37;;;;;;;10.38;2.08;;;;;;;8.21;100.00;97948.19;8253873;28;20125;-81
2021/12/28 05:47:37;;;;;;;13.52;1.88;;;;;;;8.23;100.00;97943.22;8258644;28;20496;-81
2021/12/28 05:51:38;;;;;;;11.48;1.83;;;;;;;8.20;100.00;97926.50;8264470;28;20037;-81
2021/12/28 05:55:38;;;;;;;10.75;1.77;;;;;;;8.18;100.00;97924.06;8256452;28;20091;-82
2021/12/28 05:59:39;;;;;;;6.85;1.10;;;;;;;8.13;100.00;97915.84;8245762;28;20038;-83
2021/12/28 06:03:39;;;;;;;8.80;1.70;;;;;;;8.15;100.00;97910.03;8270551;28;20044;-81
2021/12/28 06:07:40;;;;;;;7.28;0.98;;;;;;;8.18;100.00;97902.09;8273766;28;20494;-82
2021/12/28 06:11:40;;;;;;;7.85;1.20;;;;;;;8.11;100.00;97901.56;8263934;28;20081;-82
2021/12/28 06:15:40;;;;;;;8.55;1.23;;;;;;;8.22;100.00;97892.19;8272069;28;20068;-82
2021/12/28 06:19:41;;;;;;;14.25;1.50;;;;;;;8.27;100.00;97880.38;8268644;28;20030;-82
2021/12/28 06:23:42;;;;;;;3.83;0.80;;;;;;;8.25;100.00;97879.84;8267520;28;20034;-81
2021/12/28 06:27:42;;;;;;;6.65;1.15;;;;;;;8.28;100.00;97867.47;8278313;28;20402;-81
2021/12/28 06:31:42;;;;;;;4.28;0.80;;;;;;;8.27;100.00;97876.78;8270410;28;20025;-81
2021/12/28 06:35:43;;;;;;;9.52;1.40;;;;;;;8.35;100.00;97878.97;8263877;28;20060;-82
2021/12/28 06:39:43;;;;;;;5.88;1.00;;;;;;;8.36;100.00;97875.94;8269380;28;20487;-81
2021/12/28 06:43:44;;;;;;;4.93;0.90;;;;;;;8.28;100.00;97871.03;8273284;28;20034;-84
2021/12/28 06:47:45;;;;;;;7.47;0.90;;;;;;;8.34;100.00;97866.34;8262458;28;20027;-82
2021/12/28 06:51:46;;;;;;;3.50;0.88;;;;;;;8.34;100.00;97860.88;8265516;28;20041;-83
2021/12/28 06:55:46;;;;;;;4.35;1.20;;;;;;;8.35;100.00;97865.25;8252927;28;20037;-81
2021/12/28 06:59:47;;;;;;;7.35;1.13;;;;;;;8.34;100.00;97856.19;8266161;28;20042;-81
2021/12/28 07:03:49;;;;;;;4.82;0.73;;;;;;;8.36;100.00;97869.66;8252776;28;20827;-82
2021/12/28 07:07:49;;;;;;;3.87;0.93;;;;;;;8.39;100.00;97856.19;8252232;28;20368;-81
2021/12/28 07:11:50;;;;;;;1.87;0.83;;;;;;;8.40;100.00;97876.22;8278600;28;20046;-80
2021/12/28 07:15:51;;;;;;;4.90;1.10;;;;;;;8.42;100.00;97852.06;8241611;28;20337;-81
2021/12/28 07:19:52;;;;;;;6.22;1.60;;;;;;;8.36;100.00;97859.47;8235738;28;20066;-80
2021/12/28 07:23:52;;;;;;;5.38;1.10;;;;;;;8.22;100.00;97852.97;8269923;28;20455;-81
2021/12/28 07:27:53;;;;;;;3.28;0.90;;;;;;;8.29;100.00;97833.44;8256892;28;20046;-81
2021/12/28 07:31:53;;;;;;;5.23;1.60;;;;;;;8.29;100.00;97837.00;8261452;28;20045;-81
2021/12/28 07:35:53;;;;;;;1.10;0.50;;;;;;;8.25;100.00;97833.19;8257679;28;20290;-81
2021/12/28 07:39:54;;;;;;;2.65;0.70;;;;;;;8.21;100.00;97823.91;8272595;28;20297;-80
2021/12/28 07:43:54;;;;;;;2.67;1.45;;;;;;;8.22;100.00;97820.03;8274624;28;20041;-80
2021/12/28 07:47:54;;;;;;;2.90;1.10;;;;;;;8.19;100.00;97826.91;8267875;28;20476;-81
2021/12/28 07:51:55;;;;;;;3.50;0.90;;;;;;;8.22;100.00;97809.88;8284437;28;20041;-81
2021/12/28 07:55:57;;;;;;;2.28;0.73;;;;;;;8.27;100.00;97819.19;8252338;28;20085;-81
2021/12/28 07:59:58;;;;;;;4.15;0.68;;;;;;;8.30;100.00;97829.59;8269429;28;20048;-81
2021/12/28 08:03:58;;;;;;;1.75;1.08;;;;;;;8.28;100.00;97827.13;8271069;28;20042;-81
2021/12/28 08:07:59;;;;;;;2.47;1.60;;;;;;;8.32;100.00;97838.38;8260327;28;20029;-80
2021/12/28 08:11:59;;;;;;;2.90;0.73;;;;;;;8.32;100.00;97832.88;8250752;28;20070;-81
2021/12/28 08:16:00;;;;;;;5.07;0.80;;;;;;;8.30;100.00;97824.09;8276736;28;20047;-83
2021/12/28 08:20:00;;;;;;;0.90;0.50;;;;;;;8.33;100.00;97823.53;8266741;28;20270;-81
2021/12/28 08:24:01;;;;;;;4.40;0.80;;;;;;;8.35;100.00;97835.88;8269398;28;20046;-81
2021/12/28 08:28:06;;;;;;;3.58;0.70;;;;;;;8.29;100.00;97834.25;8275349;28;20037;-83
2021/12/28 08:32:07;;;;;;;2.10;0.80;;;;;;;8.40;100.00;97843.28;8272801;28;20041;-81
2021/12/28 08:36:08;;;;;;;2.65;0.65;;;;;;;8.45;100.00;97848.75;8264566;28;20381;-82
2021/12/28 08:40:11;;;;;;;1.30;0.68;;;;;;;8.46;100.00;97842.16;8278786;28;20038;-81
2021/12/28 08:44:12;;;;;;;3.20;0.70;;;;;;;8.46;100.00;97844.09;8272033;28;20483;-84
2021/12/28 08:48:12;;;;;;;3.65;0.80;;;;;;;8.46;100.00;97830.34;8263346;28;20042;-83
2021/12/28 08:52:13;;;;;;;2.13;0.68;;;;;;;8.49;100.00;97830.59;8267607;28;20038;-81
2021/12/28 08:56:14;;;;;;;3.60;1.08;;;;;;;8.54;100.00;97835.25;8269179;28;20062;-82
2021/12/28 09:00:20;;;;;;;3.65;0.93;;;;;;;8.48;100.00;97848.19;8256995;28;20034;-81
2021/12/28 09:04:21;;;;;;;3.17;1.00;;;;;;;8.56;100.00;97846.75;8263741;28;20053;-82
2021/12/28 09:08:21;;;;;;;3.92;1.25;;;;;;;8.62;100.00;97846.44;8247425;28;20064;-79
2021/12/28 09:12:22;;;;;;;2.95;1.50;;;;;;;8.65;100.00;97845.03;8264108;28;20034;-81
2021/12/28 09:16:23;;;;;;;3.38;1.70;;;;;;;8.73;100.00;97849.13;8279325;28;20479;-81
2021/12/28 09:20:26;;;;;;;8.93;1.90;;;;;;;8.65;100.00;97856.84;8277338;28;20416;-81
2021/12/28 09:24:26;;;;;;;;;;;;;;;8.59;100.00;97857.97;8267598;28;20031;-80
2021/12/28 09:28:26;;;;;;;4.53;2.10;;;;;;;8.75;100.00;97860.66;8277032;28;20394;-81
2021/12/28 09:32:27;;;;;;;5.43;2.50;;;;;;;8.73;100.00;97869.16;8275926;28;20891;-81
2021/12/28 09:36:27;;;;;;;4.65;2.53;;;;;;;8.66;100.00;97864.00;8269586;28;20774;-81
2021/12/28 09:40:28;;;;;;;5.10;2.55;;;;;;;8.82;100.00;97874.84;8288887;28;20035;-80
2021/12/28 09:44:32;;;;;;;3.40;2.63;;;;;;;8.88;100.00;97876.47;8276725;28;20032;-80
2021/12/28 09:48:33;;;;;;;4.05;2.42;;;;;;;8.79;100.00;97879.00;8274391;28;20025;-80
2021/12/28 09:52:33;;;;;;;4.85;3.38;;;;;;;8.78;100.00;97876.56;8277828;28;20030;-80
2021/12/28 09:56:36;;;;;;;5.68;2.70;;;;;;;8.81;100.00;97878.72;8279417;28;20030;-81
2021/12/28 10:00:37;;;;;;;6.38;3.22;;;;;;;8.76;100.00;97876.00;8271319;28;20042;-81
2021/12/28 10:04:58;;;;;;;7.65;3.85;;;;;;;8.75;100.00;97868.88;8270837;28;20080;-82
2021/12/28 10:09:08;;;;;;;7.97;4.28;;;;;;;8.80;100.00;97872.38;8272982;28;20611;-81
2021/12/28 10:13:18;;;;;;;7.95;4.75;;;;;;;8.79;100.00;97869.94;8263089;28;20613;-80
2021/12/28 10:17:24;;;;;;;9.68;5.18;;;;;;;8.89;100.00;97869.84;8263810;28;20041;-81
2021/12/28 10:21:25;;;;;;;6.20;4.32;;;;;;;8.95;100.00;97878.88;8258568;28;20117;-81
2021/12/28 10:25:37;;;;;;;7.05;4.00;;;;;;;8.94;100.00;97880.00;8276783;28;20037;-81
2021/12/28 10:29:38;;;;;;;9.95;4.45;;;;;;;9.00;100.00;97889.84;8269265;28;20029;-81
2021/12/28 10:33:39;;;;;;;4.82;3.97;;;;;;;9.12;100.00;97880.09;8273588;28;20085;-81
2021/12/28 10:37:43;;;;;;;7.32;4.75;;;;;;;9.20;100.00;97886.13;8267228;28;20141;-81
2021/12/28 10:41:44;;;;;;;7.03;4.03;;;;;;;9.24;100.00;97871.50;8288784;28;20101;-81
2021/12/28 10:46:04;;;;;;;7.40;4.20;;;;;;;9.28;100.00;97869.81;8284055;28;20050;-80
2021/12/28 10:50:23;;;;;;;5.30;3.70;;;;;;;9.36;100.00;97876.59;8277651;28;20049;-80
2021/12/28 10:54:23;;;;;;;5.97;4.13;;;;;;;9.42;100.00;97874.63;8276233;28;20065;-80
2021/12/28 10:58:32;;;;;;;5.15;3.85;;;;;;;9.48;100.00;97879.78;8278121;28;20061;-80
2021/12/28 11:02:34;;;;;;;5.20;3.60;;;;;;;9.57;100.00;97875.28;8264920;28;20038;-80
2021/12/28 11:06:37;;;;;;;6.00;3.60;;;;;;;9.67;100.00;97876.31;8270343;28;20041;-81
2021/12/28 11:10:44;;;;;;;4.75;3.33;;;;;;;9.77;100.00;97866.00;8273454;28;20442;-81
2021/12/28 11:14:45;;;;;;;3.17;2.50;;;;;;;9.90;100.00;97861.72;8273599;28;20057;-79
2021/12/28 11:18:51;;;;;;;5.00;3.17;;;;;;;10.02;100.00;97862.16;8279930;28;20359;-79
2021/12/28 11:23:15;;;;;;;3.55;2.20;;;;;;;10.20;100.00;97855.06;8262796;28;20459;-80
2021/12/28 11:27:27;;;;;;;5.78;3.20;;;;;;;10.23;100.00;97843.47;8275364;28;20515;-82
2021/12/28 11:31:44;;;;;;;4.75;2.53;;;;;;;10.17;100.00;97844.66;8281142;28;20101;-80
2021/12/28 11:35:45;;;;;;;4.57;2.70;;;;;;;10.21;100.00;97839.34;8268898;28;20034;-80
2021/12/28 11:39:55;;;;;;;3.78;2.42;;;;;;;10.40;100.00;97825.63;8285544;28;20036;-81
2021/12/28 11:43:56;;;;;;;3.80;1.80;;;;;;;10.45;100.00;97815.38;8284940;28;20518;-79
2021/12/28 11:47:58;;;;;;;3.30;1.98;;;;;;;10.60;100.00;97810.75;8289506;28;20030;-81
2021/12/28 11:52:02;;;;;;;4.40;2.40;;;;;;;10.73;100.00;97810.78;8294199;28;20049;-81
2021/12/28 11:56:05;;;;;;;3.15;1.48;;;;;;;10.82;100.00;97808.19;8224673;28;93644;-81
2021/12/28 12:03:39;;;;;;;1.83;1.10;;;;;;;10.99;100.00;97790.28;8304867;28;20451;-79
2021/12/28 12:07:39;;;;;;;2.20;1.20;;;;;;;10.97;100.00;97789.75;8310511;28;20529;-80
2021/12/28 12:12:10;;;;;;;1.40;0.90;;;;;;;10.81;100.00;97784.50;8313512;28;151125;-80
2021/12/28 12:16:36;;;;;;;2.55;1.77;;;;;;;10.62;100.00;97780.97;8397327;27;20466;-80
2021/12/28 12:20:44;;;;;;;3.63;2.30;;;;;;;10.36;100.00;97781.38;8315222;28;20553;-80
2021/12/28 12:24:52;;;;;;;2.78;1.67;;;;;;;10.33;100.00;97779.22;8302139;28;20080;-80
2021/12/28 12:28:54;;;;;;;4.90;2.40;;;;;;;10.33;100.00;97775.66;8296428;28;20061;-79
2021/12/28 12:33:06;;;;;;;3.35;2.40;;;;;;;10.35;100.00;97770.63;8305288;28;20049;-79
2021/12/28 12:37:20;;;;;;;3.13;2.38;;;;;;;10.34;100.00;97783.59;8294789;28;20588;-79
2021/12/28 12:41:49;;;;;;;4.00;2.78;;;;;;;10.35;100.00;97768.72;8294918;28;20046;-81
2021/12/28 12:45:51;;;;;;;3.70;2.03;;;;;;;10.46;100.00;97756.41;8298283;28;20534;-79
2021/12/28 12:50:07;;;;;;;4.95;2.08;;;;;;;10.54;100.00;97756.88;8290940;28;20482;-80
2021/12/28 12:54:16;;;;;;;4.57;2.30;;;;;;;10.37;100.00;97755.47;8272982;28;20074;-80
2021/12/28 12:58:20;;;;;;;4.82;2.38;;;;;;;10.35;100.00;97759.63;8304920;28;20068;-80
2021/12/28 13:02:25;;;;;;;3.25;2.05;;;;;;;10.30;100.00;97763.28;8292484;28;20057;-79
2021/12/28 13:06:39;;;;;;;3.50;1.73;;;;;;;10.23;100.00;97747.13;8292410;28;20042;-79
2021/12/28 13:10:41;;;;;;;3.65;1.67;;;;;;;10.26;100.00;97745.69;8303205;28;20045;-81
2021/12/28 13:14:43;;;;;;;3.03;1.60;;;;;;;10.16;100.00;97735.66;8297362;28;20052;-80
2021/12/28 13:18:45;;;;;;;2.28;1.60;;;;;;;10.17;100.00;97739.22;8309842;28;20053;-80
2021/12/28 13:22:53;;;;;;;2.15;1.40;;;;;;;10.17;100.00;97717.19;8292218;28;20053;-80
2021/12/28 13:26:59;;;;;;;2.65;1.23;;;;;;;10.19;100.00;97731.47;8282708;28;20047;-81
2021/12/28 13:31:01;;;;;;;3.38;1.27;;;;;;;10.19;100.00;97717.72;8271529;28;20115;-79
2021/12/28 13:35:22;;;;;;;2.00;1.10;;;;;;;10.22;100.00;97714.38;8269650;28;20065;-78
2021/12/28 13:39:23;;;;;;;4.25;1.10;;;;;;;10.25;100.00;97711.03;8290368;28;20109;-79
2021/12/28 13:43:31;;;;;;;4.05;1.27;;;;;;;10.32;100.00;97710.66;8280208;28;20045;-78
2021/12/28 13:47:35;;;;;;;4.88;1.10;;;;;;;10.27;100.00;97709.66;8271330;28;20053;-78
2021/12/28 13:51:36;;;;;;;5.30;1.20;;;;;;;10.24;100.00;97709.41;8282798;28;20047;-78
2021/12/28 13:55:51;;;;;;;3.95;1.08;;;;;;;10.16;100.00;97712.81;8274497;28;20046;-78
2021/12/28 13:59:56;;;;;;;2.60;1.10;;;;;;;10.20;100.00;97713.84;8272663;28;20089;-78
2021/12/28 14:04:02;;;;;;;3.72;1.17;;;;;;;10.19;100.00;97714.97;8267666;28;20433;-79
2021/12/28 14:08:04;;;;;;;4.55;1.00;;;;;;;10.22;100.00;97709.69;8266939;28;20423;-78
2021/12/28 14:12:10;;;;;;;2.63;1.10;;;;;;;10.16;100.00;97718.31;8287897;28;20050;-78
2021/12/28 14:16:11;;;;;;;2.60;0.98;;;;;;;10.04;100.00;97716.03;8275750;28;20308;-78
2021/12/28 14:20:13;;;;;;;6.20;2.53;;;;;;;10.09;100.00;97715.13;8264217;28;20054;-78
2021/12/28 14:24:15;;;;;;;2.22;1.13;;;;;;;10.08;100.00;97732.75;8273624;28;20049;-77
2021/12/28 14:28:25;;;;;;;1.88;0.80;;;;;;;10.01;100.00;97738.63;8284509;28;20041;-78
2021/12/28 14:32:35;;;;;;;6.28;1.42;;;;;;;9.98;100.00;97769.47;8282567;28;20046;-79
2021/12/28 14:36:41;;;;;;;3.67;1.50;;;;;;;9.98;100.00;97783.25;8280123;28;20512;-77
2021/12/28 14:40:43;;;;;;;5.45;1.88;;;;;;;9.94;100.00;97798.72;8280496;28;20394;-79
2021/12/28 14:44:48;;;;;;;5.53;2.20;;;;;;;9.83;100.00;97800.75;8268540;28;20042;-77
2021/12/28 14:48:49;;;;;;;4.47;1.30;;;;;;;9.84;100.00;97791.38;8269283;28;20042;-78
2021/12/28 14:52:54;;;;;;;5.18;1.80;;;;;;;9.87;100.00;97796.28;8266066;28;20065;-78
2021/12/28 14:56:57;;;;;;;4.47;1.65;;;;;;;9.96;100.00;97807.47;8259328;28;20062;-78
2021/12/28 15:00:59;;;;;;;8.20;1.35;;;;;;;9.83;100.00;97811.75;8272042;28;20049;-78
2021/12/28 15:05:04;;;;;;;4.47;1.52;;;;;;;9.75;100.00;97824.22;8264360;28;20558;-78
2021/12/28 15:09:06;;;;;;;6.30;1.23;;;;;;;9.70;100.00;97835.31;8261092;28;20061;-78
2021/12/28 15:13:15;;;;;;;7.40;1.25;;;;;;;9.64;100.00;97833.72;8276257;28;20419;-79
2021/12/28 15:17:16;;;;;;;6.95;1.50;;;;;;;9.50;100.00;97813.53;8271995;28;20046;-78
2021/12/28 15:21:18;;;;;;;5.47;1.58;;;;;;;9.48;100.00;97816.56;8262639;28;20133;-78
2021/12/28 15:25:24;;;;;;;10.60;3.63;;;;;;;9.31;100.00;97796.94;8265991;28;20127;-78
2021/12/28 15:29:27;;;;;;;6.78;1.88;;;;;;;9.02;100.00;97832.69;8266066;28;20050;-78
2021/12/28 15:33:28;;;;;;;4.30;1.25;;;;;;;8.87;100.00;97848.19;8255683;28;20102;-78
2021/12/28 15:37:30;;;;;;;8.98;1.60;;;;;;;8.89;100.00;97872.59;8271745;28;20046;-79
2021/12/28 15:41:32;;;;;;;13.48;1.92;;;;;;;8.84;100.00;97902.88;8284941;28;20049;-78
2021/12/28 15:45:34;;;;;;;9.23;1.50;;;;;;;8.86;100.00;97884.16;8282040;28;20041;-78
2021/12/28 15:49:35;;;;;;;5.80;1.10;;;;;;;8.94;98.15;97915.72;8269822;28;20050;-79
2021/12/28 15:53:37;;;;;;;4.43;1.00;;;;;;;9.05;95.04;97904.34;8254822;28;20073;-79
2021/12/28 15:57:39;;;;;;;3.60;1.15;;;;;;;9.16;89.42;97915.25;8274654;28;20050;-79
2021/12/28 16:01:41;;;;;;;3.95;1.10;;;;;;;9.09;85.83;97924.66;8261102;28;20053;-80
2021/12/28 16:05:43;;;;;;;;;;;;;;;9.04;82.70;97930.19;8262572;28;20066;-79
2021/12/28 16:09:45;;;;;;;1.52;0.50;;;;;;;8.94;84.92;97946.75;8274549;28;19945;-78
2021/12/28 16:13:48;;;;;;;4.03;1.80;;;;;;;8.77;84.33;97960.03;8277943;28;20073;-79
2021/12/28 16:17:50;;;;;;;7.35;0.98;;;;;;;8.51;84.29;97965.66;8268414;28;20393;-79
2021/12/28 16:21:52;;;;;;;4.23;2.13;;;;;;;8.38;84.55;97971.69;8267483;28;20061;-79
2021/12/28 16:25:54;;;;;;;7.57;1.00;;;;;;;8.23;85.81;97980.81;8279763;28;20741;-79
2021/12/28 16:30:01;;;;;;;7.55;1.23;;;;;;;8.14;86.79;97966.03;8262580;28;20050;-78
2021/12/28 16:34:02;;;;;;;5.57;1.60;;;;;;;7.95;86.29;97974.84;8272523;28;20097;-78
2021/12/28 16:38:04;;;;;;;5.60;1.25;;;;;;;7.83;87.12;97982.56;8270764;28;20100;-78
2021/12/28 16:42:06;;;;;;;8.27;1.90;;;;;;;7.70;88.11;97980.38;8275429;28;20070;-78
2021/12/28 16:46:08;;;;;;;5.78;1.58;;;;;;;7.60;88.79;97989.44;8269764;28;20106;-78
2021/12/28 16:50:12;;;;;;;8.70;1.67;;;;;;;7.58;90.42;97990.81;8263772;28;20109;-79
2021/12/28 16:54:14;;;;;;;12.45;1.85;;;;;;;7.51;89.36;97996.56;8258044;28;20118;-78
2021/12/28 16:58:20;;;;;;;4.63;1.67;;;;;;;7.51;89.99;97980.13;8266215;28;20105;-78
2021/12/28 17:02:21;;;;;;;8.80;1.70;;;;;;;7.51;89.34;97974.63;8269145;28;20042;-80
2021/12/28 17:06:24;;;;;;;8.98;1.90;;;;;;;7.55;88.50;97981.19;8270150;28;20053;-78
2021/12/28 17:10:26;;;;;;;9.60;2.75;;;;;;;7.68;88.81;97977.91;8279214;28;20066;-79
2021/12/28 17:14:27;;;;;;;9.77;2.20;;;;;;;7.78;88.31;97979.00;8277272;28;20143;-79
2021/12/28 17:18:29;;;;;;;10.18;2.95;;;;;;;7.83;87.00;97977.06;8271604;28;20046;-78
2021/12/28 17:22:30;;;;;;;12.30;2.50;;;;;;;7.91;87.03;97972.94;8274470;28;20097;-79
2021/12/28 17:26:32;;;;;;;15.00;1.98;;;;;;;7.96;86.79;97959.22;8280224;28;20567;-77
2021/12/28 17:30:36;;;;;;;12.27;2.10;;;;;;;8.06;87.45;97966.59;8260446;28;20066;-77
2021/12/28 17:34:42;;;;;;;8.52;1.83;;;;;;;8.07;87.41;97960.84;8262758;28;20571;-77
2021/12/28 17:38:44;;;;;;;7.63;1.93;;;;;;;8.08;87.92;97959.72;8264296;28;20198;-77
2021/12/28 17:42:46;;;;;;;12.85;2.05;;;;;;;8.08;88.27;97954.25;8271661;28;20090;-77
2021/12/28 17:46:48;;;;;;;9.23;1.92;;;;;;;8.10;87.78;97959.47;8266650;28;20480;-76
2021/12/28 17:50:50;;;;;;;12.65;1.88;;;;;;;8.12;87.52;97958.09;8265165;28;20038;-78
2021/12/28 17:54:51;;;;;;;9.98;2.38;;;;;;;8.26;88.30;97961.03;8257815;28;20100;-77
2021/12/28 17:58:56;;;;;;;13.40;1.65;;;;;;;8.31;88.93;97954.72;8259913;28;20125;-78
2021/12/28 18:02:58;;;;;;;11.57;1.85;;;;;;;8.42;89.92;97959.13;8263180;28;20050;-77
2021/12/28 18:07:03;;;;;;;11.57;2.13;;;;;;;8.54;90.50;97953.28;8266035;28;20138;-77
2021/12/28 18:11:05;;;;;;;10.25;2.35;;;;;;;8.61;91.36;97954.63;8262221;28;20559;-78
2021/12/28 18:15:08;;;;;;;9.27;2.35;;;;;;;8.66;91.43;97943.63;8265384;28;20062;-78
2021/12/28 18:19:09;;;;;;;15.85;2.60;;;;;;;8.71;92.13;97933.69;8267216;28;20052;-78
2021/12/28 18:23:11;;;;;;;12.48;2.58;;;;;;;8.62;92.34;97934.28;8260278;28;20054;-78
2021/12/28 18:27:13;;;;;;;7.30;1.93;;;;;;;8.61;92.09;97943.63;8256719;28;20495;-78
2021/12/28 18:31:15;;;;;;;10.50;2.53;;;;;;;8.59;91.21;97929.34;8247807;28;20089;-78
2021/12/28 18:35:17;;;;;;;10.97;3.17;;;;;;;8.57;90.22;97928.03;8261209;28;20039;-78
2021/12/28 18:39:19;;;;;;;9.20;1.97;;;;;;;8.58;90.35;97930.47;8256889;28;20333;-78
2021/12/28 18:43:22;;;;;;;10.50;2.00;;;;;;;8.61;90.07;97916.19;8268064;28;20046;-78
2021/12/28 18:47:25;;;;;;;12.27;2.28;;;;;;;8.61;90.05;97924.41;8259918;28;20419;-79
2021/12/28 18:51:27;;;;;;;11.18;2.42;;;;;;;8.55;91.05;97911.81;8269693;28;20065;-79
2021/12/28 18:55:34;;;;;;;9.80;2.60;;;;;;;8.57;90.63;97915.13;8264756;28;20039;-78
2021/12/28 18:59:35;;;;;;;14.23;2.95;;;;;;;8.57;90.67;97909.63;8261377;28;20158;-79
2021/12/28 19:03:38;;;;;;;13.43;3.35;;;;;;;8.48;90.92;97914.06;8270295;28;20069;-78
2021/12/28 19:07:40;;;;;;;17.17;4.32;;;;;;;8.47;91.70;97906.09;8269820;28;20038;-78
2021/12/28 19:11:42;;;;;;;8.25;1.92;;;;;;;8.48;92.54;97900.34;8270019;28;20045;-78